sensor_id;sensor_type;location;lat;lon;timestamp;temperature;humidity
17202;DHT22;8717;53.588;10.176;2023-01-09T00:01:49;4.50;99.90
17202;DHT22;8717;53.588;10.176;2023-01-09T00:04:17;4.50;99.90
17202;DHT22;8717;53.588;10.176;2023-01-09T00:06:44;4.40;99.90
17202;DHT22;8717;53.588;10.176;2023-01-09T00:09:18;4.40;99.90
17202;DHT22;8717;53.588;10.176;2023-01-09T00:11:45;4.30;99.90
17202;DHT22;8717;53.588;10.176;2023-01-09T00:14:12;4.30;99.90
17202;DHT22;8717;53.588;10.176;2023-01-09T00:16:39;4.30;99.90
17202;DHT22;8717;53.588;10.176;2023-01-09T00:19:06;4.20;99.90
17202;DHT22;8717;53.588;10.176;2023-01-09T00:21:35;4.20;99.90
17202;DHT22;8717;53.588;10.176;2023-01-09T00:24:03;4.10;99.90
17202;DHT22;8717;53.588;10.176;2023-01-09T00:26:30;4.10;99.90
17202;DHT22;8717;53.588;10.176;2023-01-09T00:29:00;4.10;99.90
17202;DHT22;8717;53.588;10.176;2023-01-09T00:31:27;4.00;99.90
17202;DHT22;8717;53.588;10.176;2023-01-09T00:33:55;4.00;99.90
17202;DHT22;8717;53.588;10.176;2023-01-09T00:36:24;4.00;99.90
17202;DHT22;8717;53.588;10.176;2023-01-09T00:38:52;4.00;99.90
17202;DHT22;8717;53.588;10.176;2023-01-09T00:41:21;4.00;99.90
17202;DHT22;8717;53.588;10.176;2023-01-09T00:43:51;4.00;99.90
17202;DHT22;8717;53.588;10.176;2023-01-09T00:46:20;4.00;99.90
17202;DHT22;8717;53.588;10.176;2023-01-09T00:48:48;4.00;99.90
17202;DHT22;8717;53.588;10.176;2023-01-09T00:51:16;4.00;99.90
17202;DHT22;8717;53.588;10.176;2023-01-09T00:53:45;4.00;99.90
17202;DHT22;8717;53.588;10.176;2023-01-09T00:56:16;4.10;99.90
17202;DHT22;8717;53.588;10.176;2023-01-09T00:58:44;4.10;99.90
17202;DHT22;8717;53.588;10.176;2023-01-09T01:01:11;4.20;99.90
17202;DHT22;8717;53.588;10.176;2023-01-09T01:03:38;4.20;99.90
17202;DHT22;8717;53.588;10.176;2023-01-09T01:06:05;4.20;99.90
17202;DHT22;8717;53.588;10.176;2023-01-09T01:08:49;4.30;99.90
17202;DHT22;8717;53.588;10.176;2023-01-09T01:11:18;4.30;99.90
17202;DHT22;8717;53.588;10.176;2023-01-09T01:13:45;4.30;99.90
17202;DHT22;8717;53.588;10.176;2023-01-09T01:16:12;4.40;99.90
17202;DHT22;8717;53.588;10.176;2023-01-09T01:18:40;4.40;99.90
17202;DHT22;8717;53.588;10.176;2023-01-09T01:21:07;4.40;99.90
17202;DHT22;8717;53.588;10.176;2023-01-09T01:23:35;4.40;99.90
17202;DHT22;8717;53.588;10.176;2023-01-09T01:26:06;4.40;99.90
17202;DHT22;8717;53.588;10.176;2023-01-09T01:28:34;4.40;99.90
17202;DHT22;8717;53.588;10.176;2023-01-09T01:31:01;4.40;99.90
17202;DHT22;8717;53.588;10.176;2023-01-09T01:33:29;4.40;99.90
17202;DHT22;8717;53.588;10.176;2023-01-09T01:36:01;4.40;99.90
17202;DHT22;8717;53.588;10.176;2023-01-09T01:38:29;4.40;99.90
17202;DHT22;8717;53.588;10.176;2023-01-09T01:40:55;4.40;99.90
17202;DHT22;8717;53.588;10.176;2023-01-09T01:43:22;4.40;99.90
17202;DHT22;8717;53.588;10.176;2023-01-09T01:45:51;4.40;99.90
17202;DHT22;8717;53.588;10.176;2023-01-09T01:48:20;4.40;99.90
17202;DHT22;8717;53.588;10.176;2023-01-09T01:50:51;4.50;99.90
17202;DHT22;8717;53.588;10.176;2023-01-09T01:53:22;4.50;99.90
17202;DHT22;8717;53.588;10.176;2023-01-09T01:56:00;4.50;99.90
17202;DHT22;8717;53.588;10.176;2023-01-09T01:58:29;4.50;99.90
17202;DHT22;8717;53.588;10.176;2023-01-09T02:00:57;4.50;99.90
17202;DHT22;8717;53.588;10.176;2023-01-09T02:03:26;4.60;99.90
17202;DHT22;8717;53.588;10.176;2023-01-09T02:05:54;4.60;99.90
17202;DHT22;8717;53.588;10.176;2023-01-09T02:08:21;4.60;99.90
17202;DHT22;8717;53.588;10.176;2023-01-09T02:10:48;4.70;99.90
17202;DHT22;8717;53.588;10.176;2023-01-09T02:13:16;4.70;99.90
17202;DHT22;8717;53.588;10.176;2023-01-09T02:15:55;4.70;99.90
17202;DHT22;8717;53.588;10.176;2023-01-09T02:21:25;4.80;99.90
17202;DHT22;8717;53.588;10.176;2023-01-09T02:24:09;4.90;99.90
17202;DHT22;8717;53.588;10.176;2023-01-09T02:30:05;5.00;99.90
17202;DHT22;8717;53.588;10.176;2023-01-09T02:32:48;5.00;99.90
17202;DHT22;8717;53.588;10.176;2023-01-09T02:38:19;5.10;99.90
17202;DHT22;8717;53.588;10.176;2023-01-09T02:40:55;5.10;99.90
17202;DHT22;8717;53.588;10.176;2023-01-09T02:43:25;5.20;99.90
17202;DHT22;8717;53.588;10.176;2023-01-09T02:45:55;5.20;99.90
17202;DHT22;8717;53.588;10.176;2023-01-09T02:48:22;5.20;99.90
17202;DHT22;8717;53.588;10.176;2023-01-09T02:50:54;5.20;99.90
17202;DHT22;8717;53.588;10.176;2023-01-09T02:53:53;5.20;99.90
17202;DHT22;8717;53.588;10.176;2023-01-09T02:56:55;5.30;99.90
17202;DHT22;8717;53.588;10.176;2023-01-09T02:59:28;5.30;99.90
17202;DHT22;8717;53.588;10.176;2023-01-09T03:02:12;5.40;99.90
17202;DHT22;8717;53.588;10.176;2023-01-09T03:04:48;5.40;99.90
17202;DHT22;8717;53.588;10.176;2023-01-09T03:07:22;5.40;99.90
17202;DHT22;8717;53.588;10.176;2023-01-09T03:09:54;5.40;99.90
17202;DHT22;8717;53.588;10.176;2023-01-09T03:12:26;5.40;99.90
17202;DHT22;8717;53.588;10.176;2023-01-09T03:14:58;5.50;99.90
17202;DHT22;8717;53.588;10.176;2023-01-09T03:17:28;5.50;99.90
17202;DHT22;8717;53.588;10.176;2023-01-09T03:19:58;5.50;99.90
17202;DHT22;8717;53.588;10.176;2023-01-09T03:22:26;5.40;99.90
17202;DHT22;8717;53.588;10.176;2023-01-09T03:24:53;5.50;99.90
17202;DHT22;8717;53.588;10.176;2023-01-09T03:27:19;5.50;99.90
17202;DHT22;8717;53.588;10.176;2023-01-09T03:29:46;5.50;99.90
17202;DHT22;8717;53.588;10.176;2023-01-09T03:32:13;5.50;99.90
17202;DHT22;8717;53.588;10.176;2023-01-09T03:34:41;5.50;99.90
17202;DHT22;8717;53.588;10.176;2023-01-09T03:37:08;5.60;99.90
17202;DHT22;8717;53.588;10.176;2023-01-09T03:39:35;5.60;99.90
17202;DHT22;8717;53.588;10.176;2023-01-09T03:42:02;5.60;99.90
17202;DHT22;8717;53.588;10.176;2023-01-09T03:44:28;5.60;99.90
17202;DHT22;8717;53.588;10.176;2023-01-09T03:46:55;5.60;99.90
17202;DHT22;8717;53.588;10.176;2023-01-09T03:49:22;5.70;99.90
17202;DHT22;8717;53.588;10.176;2023-01-09T03:51:50;5.70;99.90
17202;DHT22;8717;53.588;10.176;2023-01-09T03:54:17;5.70;99.90
17202;DHT22;8717;53.588;10.176;2023-01-09T03:56:44;5.70;99.90
17202;DHT22;8717;53.588;10.176;2023-01-09T03:59:11;5.70;99.90
17202;DHT22;8717;53.588;10.176;2023-01-09T04:01:37;5.70;99.90
17202;DHT22;8717;53.588;10.176;2023-01-09T04:04:04;5.70;99.90
17202;DHT22;8717;53.588;10.176;2023-01-09T04:06:31;5.70;99.90
17202;DHT22;8717;53.588;10.176;2023-01-09T04:08:59;5.70;99.90
17202;DHT22;8717;53.588;10.176;2023-01-09T04:11:26;5.70;99.90
17202;DHT22;8717;53.588;10.176;2023-01-09T04:13:53;5.70;99.90
17202;DHT22;8717;53.588;10.176;2023-01-09T04:16:19;5.70;99.90
17202;DHT22;8717;53.588;10.176;2023-01-09T04:18:46;5.70;99.90
17202;DHT22;8717;53.588;10.176;2023-01-09T04:21:13;5.70;99.90
17202;DHT22;8717;53.588;10.176;2023-01-09T04:23:39;5.70;99.90
17202;DHT22;8717;53.588;10.176;2023-01-09T04:26:07;5.70;99.90
17202;DHT22;8717;53.588;10.176;2023-01-09T04:28:34;5.70;99.90
17202;DHT22;8717;53.588;10.176;2023-01-09T04:31:01;5.70;99.90
17202;DHT22;8717;53.588;10.176;2023-01-09T04:33:27;5.70;99.90
17202;DHT22;8717;53.588;10.176;2023-01-09T04:35:54;5.70;99.90
17202;DHT22;8717;53.588;10.176;2023-01-09T04:38:21;5.60;99.90
17202;DHT22;8717;53.588;10.176;2023-01-09T04:40:48;5.60;99.90
17202;DHT22;8717;53.588;10.176;2023-01-09T04:43:16;5.60;99.90
17202;DHT22;8717;53.588;10.176;2023-01-09T04:45:43;5.60;99.90
17202;DHT22;8717;53.588;10.176;2023-01-09T04:48:10;5.60;99.90
17202;DHT22;8717;53.588;10.176;2023-01-09T04:50:36;5.60;99.90
17202;DHT22;8717;53.588;10.176;2023-01-09T04:53:03;5.60;99.90
17202;DHT22;8717;53.588;10.176;2023-01-09T04:55:30;5.60;99.90
17202;DHT22;8717;53.588;10.176;2023-01-09T04:57:57;5.60;99.90
17202;DHT22;8717;53.588;10.176;2023-01-09T05:00:27;5.60;99.90
17202;DHT22;8717;53.588;10.176;2023-01-09T05:02:54;5.50;99.90
17202;DHT22;8717;53.588;10.176;2023-01-09T05:05:21;5.50;99.90
17202;DHT22;8717;53.588;10.176;2023-01-09T05:07:48;5.50;99.90
17202;DHT22;8717;53.588;10.176;2023-01-09T05:10:15;5.50;99.90
17202;DHT22;8717;53.588;10.176;2023-01-09T05:12:42;5.50;99.90
17202;DHT22;8717;53.588;10.176;2023-01-09T05:15:09;5.50;99.90
17202;DHT22;8717;53.588;10.176;2023-01-09T05:17:37;5.50;99.90
17202;DHT22;8717;53.588;10.176;2023-01-09T05:20:04;5.50;99.90
17202;DHT22;8717;53.588;10.176;2023-01-09T05:22:31;5.50;99.90
17202;DHT22;8717;53.588;10.176;2023-01-09T05:24:58;5.50;99.90
17202;DHT22;8717;53.588;10.176;2023-01-09T05:27:25;5.50;99.90
17202;DHT22;8717;53.588;10.176;2023-01-09T05:29:54;5.50;99.90
17202;DHT22;8717;53.588;10.176;2023-01-09T05:32:21;5.50;99.90
17202;DHT22;8717;53.588;10.176;2023-01-09T05:34:49;5.50;99.90
17202;DHT22;8717;53.588;10.176;2023-01-09T05:37:16;5.60;99.90
17202;DHT22;8717;53.588;10.176;2023-01-09T05:39:43;5.60;99.90
17202;DHT22;8717;53.588;10.176;2023-01-09T05:42:10;5.50;99.90
17202;DHT22;8717;53.588;10.176;2023-01-09T05:44:38;5.60;99.90
17202;DHT22;8717;53.588;10.176;2023-01-09T05:47:05;5.60;99.90
17202;DHT22;8717;53.588;10.176;2023-01-09T05:49:31;5.60;99.90
17202;DHT22;8717;53.588;10.176;2023-01-09T05:52:02;5.60;99.90
17202;DHT22;8717;53.588;10.176;2023-01-09T05:54:29;5.60;99.90
17202;DHT22;8717;53.588;10.176;2023-01-09T05:56:56;5.60;99.90
17202;DHT22;8717;53.588;10.176;2023-01-09T05:59:22;5.60;99.90
17202;DHT22;8717;53.588;10.176;2023-01-09T06:01:50;5.60;99.90
17202;DHT22;8717;53.588;10.176;2023-01-09T06:04:18;5.60;99.90
17202;DHT22;8717;53.588;10.176;2023-01-09T06:06:46;5.50;99.90
17202;DHT22;8717;53.588;10.176;2023-01-09T06:09:16;5.60;99.90
17202;DHT22;8717;53.588;10.176;2023-01-09T06:11:43;5.60;99.90
17202;DHT22;8717;53.588;10.176;2023-01-09T06:14:10;5.60;99.90
17202;DHT22;8717;53.588;10.176;2023-01-09T06:16:37;5.60;99.90
17202;DHT22;8717;53.588;10.176;2023-01-09T06:19:04;5.60;99.90
17202;DHT22;8717;53.588;10.176;2023-01-09T06:21:31;5.60;99.90
17202;DHT22;8717;53.588;10.176;2023-01-09T06:23:58;5.60;99.90
17202;DHT22;8717;53.588;10.176;2023-01-09T06:26:26;5.60;99.90
17202;DHT22;8717;53.588;10.176;2023-01-09T06:28:53;5.60;99.90
17202;DHT22;8717;53.588;10.176;2023-01-09T06:31:21;5.70;99.90
17202;DHT22;8717;53.588;10.176;2023-01-09T06:33:47;5.70;99.90
17202;DHT22;8717;53.588;10.176;2023-01-09T06:36:17;5.70;99.90
17202;DHT22;8717;53.588;10.176;2023-01-09T06:38:43;5.70;99.90
17202;DHT22;8717;53.588;10.176;2023-01-09T06:41:10;5.70;99.90
17202;DHT22;8717;53.588;10.176;2023-01-09T06:43:40;5.70;99.90
17202;DHT22;8717;53.588;10.176;2023-01-09T06:46:09;5.70;99.90
17202;DHT22;8717;53.588;10.176;2023-01-09T06:48:36;5.70;99.90
17202;DHT22;8717;53.588;10.176;2023-01-09T06:51:03;5.80;99.90
17202;DHT22;8717;53.588;10.176;2023-01-09T06:53:30;5.80;99.90
17202;DHT22;8717;53.588;10.176;2023-01-09T06:55:57;5.80;99.90
17202;DHT22;8717;53.588;10.176;2023-01-09T06:58:24;5.90;99.90
17202;DHT22;8717;53.588;10.176;2023-01-09T07:00:52;5.90;99.90
17202;DHT22;8717;53.588;10.176;2023-01-09T07:03:22;5.80;99.90
17202;DHT22;8717;53.588;10.176;2023-01-09T07:05:49;5.90;99.90
17202;DHT22;8717;53.588;10.176;2023-01-09T07:08:18;5.90;99.90
17202;DHT22;8717;53.588;10.176;2023-01-09T07:10:46;5.90;99.90
17202;DHT22;8717;53.588;10.176;2023-01-09T07:13:16;5.90;99.90
17202;DHT22;8717;53.588;10.176;2023-01-09T07:15:42;5.90;99.90
17202;DHT22;8717;53.588;10.176;2023-01-09T07:18:13;5.90;99.90
17202;DHT22;8717;53.588;10.176;2023-01-09T07:20:42;5.90;99.90
17202;DHT22;8717;53.588;10.176;2023-01-09T07:23:11;5.90;99.90
17202;DHT22;8717;53.588;10.176;2023-01-09T07:25:38;5.90;99.90
17202;DHT22;8717;53.588;10.176;2023-01-09T07:28:05;5.90;99.90
17202;DHT22;8717;53.588;10.176;2023-01-09T07:30:32;5.90;99.90
17202;DHT22;8717;53.588;10.176;2023-01-09T07:32:58;5.90;99.90
17202;DHT22;8717;53.588;10.176;2023-01-09T07:35:26;5.90;99.90
17202;DHT22;8717;53.588;10.176;2023-01-09T07:37:53;6.00;99.90
17202;DHT22;8717;53.588;10.176;2023-01-09T07:40:20;6.00;99.90
17202;DHT22;8717;53.588;10.176;2023-01-09T07:42:47;6.00;99.90
17202;DHT22;8717;53.588;10.176;2023-01-09T07:45:14;6.00;99.90
17202;DHT22;8717;53.588;10.176;2023-01-09T07:47:40;6.00;99.90
17202;DHT22;8717;53.588;10.176;2023-01-09T07:50:08;6.00;99.90
17202;DHT22;8717;53.588;10.176;2023-01-09T07:52:38;6.00;99.90
17202;DHT22;8717;53.588;10.176;2023-01-09T07:55:06;6.00;99.90
17202;DHT22;8717;53.588;10.176;2023-01-09T07:57:35;6.00;99.90
17202;DHT22;8717;53.588;10.176;2023-01-09T08:00:06;6.00;99.90
17202;DHT22;8717;53.588;10.176;2023-01-09T08:02:38;5.90;99.90
17202;DHT22;8717;53.588;10.176;2023-01-09T08:05:05;6.00;99.90
17202;DHT22;8717;53.588;10.176;2023-01-09T08:07:33;5.90;99.90
17202;DHT22;8717;53.588;10.176;2023-01-09T08:10:01;5.90;99.90
17202;DHT22;8717;53.588;10.176;2023-01-09T08:12:28;5.90;99.90
17202;DHT22;8717;53.588;10.176;2023-01-09T08:14:54;6.00;99.90
17202;DHT22;8717;53.588;10.176;2023-01-09T08:17:21;6.00;99.90
17202;DHT22;8717;53.588;10.176;2023-01-09T08:19:48;6.00;99.90
17202;DHT22;8717;53.588;10.176;2023-01-09T08:22:15;6.00;99.90
17202;DHT22;8717;53.588;10.176;2023-01-09T08:24:41;6.00;99.90
17202;DHT22;8717;53.588;10.176;2023-01-09T08:27:09;6.00;99.90
17202;DHT22;8717;53.588;10.176;2023-01-09T08:29:36;6.00;99.90
17202;DHT22;8717;53.588;10.176;2023-01-09T08:32:03;6.10;99.90
17202;DHT22;8717;53.588;10.176;2023-01-09T08:34:30;6.10;99.90
17202;DHT22;8717;53.588;10.176;2023-01-09T08:36:56;6.10;99.90
17202;DHT22;8717;53.588;10.176;2023-01-09T08:39:23;6.10;99.90
17202;DHT22;8717;53.588;10.176;2023-01-09T08:41:53;6.10;99.90
17202;DHT22;8717;53.588;10.176;2023-01-09T08:44:39;6.10;99.90
17202;DHT22;8717;53.588;10.176;2023-01-09T08:47:23;6.10;99.90
17202;DHT22;8717;53.588;10.176;2023-01-09T08:49:50;6.20;99.90
17202;DHT22;8717;53.588;10.176;2023-01-09T08:52:17;6.20;99.90
17202;DHT22;8717;53.588;10.176;2023-01-09T08:54:43;6.20;99.90
17202;DHT22;8717;53.588;10.176;2023-01-09T08:57:10;6.20;99.90
17202;DHT22;8717;53.588;10.176;2023-01-09T08:59:38;6.20;99.90
17202;DHT22;8717;53.588;10.176;2023-01-09T09:02:05;6.20;99.90
17202;DHT22;8717;53.588;10.176;2023-01-09T09:04:32;6.20;99.90
17202;DHT22;8717;53.588;10.176;2023-01-09T09:06:58;6.30;99.90
17202;DHT22;8717;53.588;10.176;2023-01-09T09:09:25;6.30;99.90
17202;DHT22;8717;53.588;10.176;2023-01-09T09:11:52;6.30;99.90
17202;DHT22;8717;53.588;10.176;2023-01-09T09:14:19;6.40;99.90
17202;DHT22;8717;53.588;10.176;2023-01-09T09:17:04;6.40;99.90
17202;DHT22;8717;53.588;10.176;2023-01-09T09:19:31;6.40;99.90
17202;DHT22;8717;53.588;10.176;2023-01-09T09:21:58;6.50;99.90
17202;DHT22;8717;53.588;10.176;2023-01-09T09:24:24;6.50;99.90
17202;DHT22;8717;53.588;10.176;2023-01-09T09:26:54;6.60;99.90
17202;DHT22;8717;53.588;10.176;2023-01-09T09:29:21;6.80;99.90
17202;DHT22;8717;53.588;10.176;2023-01-09T09:31:47;6.90;99.90
17202;DHT22;8717;53.588;10.176;2023-01-09T09:34:15;7.00;99.90
17202;DHT22;8717;53.588;10.176;2023-01-09T09:36:43;7.10;99.90
17202;DHT22;8717;53.588;10.176;2023-01-09T09:39:09;7.10;99.90
17202;DHT22;8717;53.588;10.176;2023-01-09T09:42:03;7.20;99.90
17202;DHT22;8717;53.588;10.176;2023-01-09T09:45:00;7.10;99.90
17202;DHT22;8717;53.588;10.176;2023-01-09T09:47:41;7.10;99.90
17202;DHT22;8717;53.588;10.176;2023-01-09T09:50:23;7.10;99.90
17202;DHT22;8717;53.588;10.176;2023-01-09T09:52:57;7.00;99.90
17202;DHT22;8717;53.588;10.176;2023-01-09T09:55:29;7.00;99.90
17202;DHT22;8717;53.588;10.176;2023-01-09T09:57:57;6.90;99.90
17202;DHT22;8717;53.588;10.176;2023-01-09T10:00:26;6.80;99.90
17202;DHT22;8717;53.588;10.176;2023-01-09T10:02:57;6.80;99.90
17202;DHT22;8717;53.588;10.176;2023-01-09T10:05:28;6.70;99.90
17202;DHT22;8717;53.588;10.176;2023-01-09T10:08:01;6.70;99.90
17202;DHT22;8717;53.588;10.176;2023-01-09T10:10:31;6.60;99.90
17202;DHT22;8717;53.588;10.176;2023-01-09T10:12:59;6.60;99.90
17202;DHT22;8717;53.588;10.176;2023-01-09T10:15:52;6.60;99.90
17202;DHT22;8717;53.588;10.176;2023-01-09T10:18:28;6.50;99.90
17202;DHT22;8717;53.588;10.176;2023-01-09T10:21:03;6.60;99.90
17202;DHT22;8717;53.588;10.176;2023-01-09T10:23:43;6.50;99.90
17202;DHT22;8717;53.588;10.176;2023-01-09T10:26:20;6.50;99.90
17202;DHT22;8717;53.588;10.176;2023-01-09T10:31:50;6.50;99.90
17202;DHT22;8717;53.588;10.176;2023-01-09T10:34:29;6.50;99.90
17202;DHT22;8717;53.588;10.176;2023-01-09T10:37:07;6.50;99.90
17202;DHT22;8717;53.588;10.176;2023-01-09T10:39:39;6.50;99.90
17202;DHT22;8717;53.588;10.176;2023-01-09T10:42:15;6.50;99.90
17202;DHT22;8717;53.588;10.176;2023-01-09T10:44:50;6.50;99.90
17202;DHT22;8717;53.588;10.176;2023-01-09T10:47:24;6.50;99.90
17202;DHT22;8717;53.588;10.176;2023-01-09T10:49:55;6.50;99.90
17202;DHT22;8717;53.588;10.176;2023-01-09T10:52:32;6.50;99.90
17202;DHT22;8717;53.588;10.176;2023-01-09T10:55:03;6.50;99.90
17202;DHT22;8717;53.588;10.176;2023-01-09T10:57:44;6.50;99.90
17202;DHT22;8717;53.588;10.176;2023-01-09T11:00:16;6.50;99.90
17202;DHT22;8717;53.588;10.176;2023-01-09T11:02:43;6.60;99.90
17202;DHT22;8717;53.588;10.176;2023-01-09T11:05:18;6.60;99.90
17202;DHT22;8717;53.588;10.176;2023-01-09T11:07:49;6.60;99.90
17202;DHT22;8717;53.588;10.176;2023-01-09T11:10:17;6.60;99.90
17202;DHT22;8717;53.588;10.176;2023-01-09T11:12:44;6.60;99.90
17202;DHT22;8717;53.588;10.176;2023-01-09T11:15:23;6.60;99.90
17202;DHT22;8717;53.588;10.176;2023-01-09T11:17:57;6.60;99.90
17202;DHT22;8717;53.588;10.176;2023-01-09T11:20:41;6.60;99.90
17202;DHT22;8717;53.588;10.176;2023-01-09T11:23:23;6.60;99.90
17202;DHT22;8717;53.588;10.176;2023-01-09T11:25:51;6.60;99.90
17202;DHT22;8717;53.588;10.176;2023-01-09T11:28:18;6.60;99.90
17202;DHT22;8717;53.588;10.176;2023-01-09T11:30:51;6.60;99.90
17202;DHT22;8717;53.588;10.176;2023-01-09T11:33:21;6.60;99.90
17202;DHT22;8717;53.588;10.176;2023-01-09T11:36:04;6.60;99.90
17202;DHT22;8717;53.588;10.176;2023-01-09T11:38:46;6.60;99.90
17202;DHT22;8717;53.588;10.176;2023-01-09T11:41:17;6.70;99.90
17202;DHT22;8717;53.588;10.176;2023-01-09T11:43:46;6.70;99.90
17202;DHT22;8717;53.588;10.176;2023-01-09T11:46:30;6.80;99.90
17202;DHT22;8717;53.588;10.176;2023-01-09T11:48:58;6.90;99.90
17202;DHT22;8717;53.588;10.176;2023-01-09T11:51:27;6.90;99.90
17202;DHT22;8717;53.588;10.176;2023-01-09T11:54:18;7.00;99.90
17202;DHT22;8717;53.588;10.176;2023-01-09T11:56:47;7.10;99.90
17202;DHT22;8717;53.588;10.176;2023-01-09T11:59:16;7.20;99.90
17202;DHT22;8717;53.588;10.176;2023-01-09T12:04:44;7.30;99.90
17202;DHT22;8717;53.588;10.176;2023-01-09T12:07:34;7.40;99.90
17202;DHT22;8717;53.588;10.176;2023-01-09T12:10:12;7.50;99.90
17202;DHT22;8717;53.588;10.176;2023-01-09T12:12:50;7.50;99.90
17202;DHT22;8717;53.588;10.176;2023-01-09T12:15:27;7.60;99.90
17202;DHT22;8717;53.588;10.176;2023-01-09T12:21:01;7.60;99.90
17202;DHT22;8717;53.588;10.176;2023-01-09T12:23:45;7.60;99.90
17202;DHT22;8717;53.588;10.176;2023-01-09T12:26:21;7.60;99.90
17202;DHT22;8717;53.588;10.176;2023-01-09T12:32:13;7.60;99.90
17202;DHT22;8717;53.588;10.176;2023-01-09T12:34:55;7.50;99.90
17202;DHT22;8717;53.588;10.176;2023-01-09T12:37:47;7.50;99.90
17202;DHT22;8717;53.588;10.176;2023-01-09T12:40:27;7.50;99.90
17202;DHT22;8717;53.588;10.176;2023-01-09T12:43:04;7.50;99.90
17202;DHT22;8717;53.588;10.176;2023-01-09T12:45:43;7.40;99.90
17202;DHT22;8717;53.588;10.176;2023-01-09T12:48:32;7.40;99.90
17202;DHT22;8717;53.588;10.176;2023-01-09T12:51:20;7.40;99.90
17202;DHT22;8717;53.588;10.176;2023-01-09T12:53:56;7.30;99.90
17202;DHT22;8717;53.588;10.176;2023-01-09T12:56:29;7.30;99.90
17202;DHT22;8717;53.588;10.176;2023-01-09T12:59:00;7.30;99.90
17202;DHT22;8717;53.588;10.176;2023-01-09T13:01:33;7.30;99.90
17202;DHT22;8717;53.588;10.176;2023-01-09T13:04:08;7.20;99.90
17202;DHT22;8717;53.588;10.176;2023-01-09T13:06:42;7.20;99.90
17202;DHT22;8717;53.588;10.176;2023-01-09T13:09:18;7.10;99.90
17202;DHT22;8717;53.588;10.176;2023-01-09T13:12:02;7.10;99.90
17202;DHT22;8717;53.588;10.176;2023-01-09T13:14:54;7.10;99.90
17202;DHT22;8717;53.588;10.176;2023-01-09T13:17:25;7.00;99.90
17202;DHT22;8717;53.588;10.176;2023-01-09T13:19:53;7.00;99.90
17202;DHT22;8717;53.588;10.176;2023-01-09T13:22:23;6.90;99.90
17202;DHT22;8717;53.588;10.176;2023-01-09T13:25:00;6.90;99.90
17202;DHT22;8717;53.588;10.176;2023-01-09T13:27:33;6.90;99.90
17202;DHT22;8717;53.588;10.176;2023-01-09T13:30:16;6.80;99.90
17202;DHT22;8717;53.588;10.176;2023-01-09T13:32:57;6.80;99.90
17202;DHT22;8717;53.588;10.176;2023-01-09T13:35:25;6.80;99.90
17202;DHT22;8717;53.588;10.176;2023-01-09T13:37:52;6.80;99.90
17202;DHT22;8717;53.588;10.176;2023-01-09T13:40:27;6.80;99.90
17202;DHT22;8717;53.588;10.176;2023-01-09T13:43:00;6.80;99.90
17202;DHT22;8717;53.588;10.176;2023-01-09T13:45:30;6.80;99.90
17202;DHT22;8717;53.588;10.176;2023-01-09T13:48:23;6.80;99.90
17202;DHT22;8717;53.588;10.176;2023-01-09T13:50:50;6.80;99.90
17202;DHT22;8717;53.588;10.176;2023-01-09T13:53:45;6.70;99.90
17202;DHT22;8717;53.588;10.176;2023-01-09T13:56:12;6.70;99.90
17202;DHT22;8717;53.588;10.176;2023-01-09T13:59:00;6.70;99.90
17202;DHT22;8717;53.588;10.176;2023-01-09T14:01:44;6.70;99.90
17202;DHT22;8717;53.588;10.176;2023-01-09T14:04:43;6.60;99.90
17202;DHT22;8717;53.588;10.176;2023-01-09T14:07:22;6.70;99.90
17202;DHT22;8717;53.588;10.176;2023-01-09T14:09:55;6.60;99.90
17202;DHT22;8717;53.588;10.176;2023-01-09T14:12:23;6.60;99.90
17202;DHT22;8717;53.588;10.176;2023-01-09T14:14:52;6.60;99.90
17202;DHT22;8717;53.588;10.176;2023-01-09T14:17:26;6.60;99.90
17202;DHT22;8717;53.588;10.176;2023-01-09T14:19:57;6.60;99.90
17202;DHT22;8717;53.588;10.176;2023-01-09T14:22:25;6.60;99.90
17202;DHT22;8717;53.588;10.176;2023-01-09T14:24:53;6.60;99.90
17202;DHT22;8717;53.588;10.176;2023-01-09T14:28:02;6.60;99.90
17202;DHT22;8717;53.588;10.176;2023-01-09T14:30:33;6.50;99.90
17202;DHT22;8717;53.588;10.176;2023-01-09T14:33:03;6.50;99.90
17202;DHT22;8717;53.588;10.176;2023-01-09T14:35:38;6.50;99.90
17202;DHT22;8717;53.588;10.176;2023-01-09T14:38:18;6.50;99.90
17202;DHT22;8717;53.588;10.176;2023-01-09T14:40:51;6.40;99.90
17202;DHT22;8717;53.588;10.176;2023-01-09T14:43:30;6.40;99.90
17202;DHT22;8717;53.588;10.176;2023-01-09T14:46:03;6.40;99.90
17202;DHT22;8717;53.588;10.176;2023-01-09T14:48:40;6.40;99.90
17202;DHT22;8717;53.588;10.176;2023-01-09T14:51:14;6.40;99.90
17202;DHT22;8717;53.588;10.176;2023-01-09T14:53:41;6.40;99.90
17202;DHT22;8717;53.588;10.176;2023-01-09T14:56:25;6.30;99.90
17202;DHT22;8717;53.588;10.176;2023-01-09T14:59:03;6.30;99.90
17202;DHT22;8717;53.588;10.176;2023-01-09T15:01:32;6.30;99.90
17202;DHT22;8717;53.588;10.176;2023-01-09T15:04:02;6.30;99.90
17202;DHT22;8717;53.588;10.176;2023-01-09T15:06:33;6.30;99.90
17202;DHT22;8717;53.588;10.176;2023-01-09T15:09:03;6.30;99.90
17202;DHT22;8717;53.588;10.176;2023-01-09T15:11:31;6.30;99.90
17202;DHT22;8717;53.588;10.176;2023-01-09T15:13:59;6.30;99.90
17202;DHT22;8717;53.588;10.176;2023-01-09T15:16:27;6.30;99.90
17202;DHT22;8717;53.588;10.176;2023-01-09T15:18:56;6.30;99.90
17202;DHT22;8717;53.588;10.176;2023-01-09T15:21:26;6.20;99.90
17202;DHT22;8717;53.588;10.176;2023-01-09T15:24:10;6.20;99.90
17202;DHT22;8717;53.588;10.176;2023-01-09T15:26:38;6.20;99.90
17202;DHT22;8717;53.588;10.176;2023-01-09T15:29:12;6.30;99.90
17202;DHT22;8717;53.588;10.176;2023-01-09T15:31:43;6.30;99.90
17202;DHT22;8717;53.588;10.176;2023-01-09T15:34:16;6.30;99.90
17202;DHT22;8717;53.588;10.176;2023-01-09T15:36:45;6.20;99.90
17202;DHT22;8717;53.588;10.176;2023-01-09T15:39:17;6.30;99.90
17202;DHT22;8717;53.588;10.176;2023-01-09T15:41:45;6.20;99.90
17202;DHT22;8717;53.588;10.176;2023-01-09T15:44:30;6.20;99.90
17202;DHT22;8717;53.588;10.176;2023-01-09T15:47:03;6.20;99.90
17202;DHT22;8717;53.588;10.176;2023-01-09T15:49:31;6.10;99.90
17202;DHT22;8717;53.588;10.176;2023-01-09T15:52:00;6.10;99.90
17202;DHT22;8717;53.588;10.176;2023-01-09T15:54:29;6.10;99.90
17202;DHT22;8717;53.588;10.176;2023-01-09T16:00:30;6.00;99.90
17202;DHT22;8717;53.588;10.176;2023-01-09T16:02:58;6.00;99.90
17202;DHT22;8717;53.588;10.176;2023-01-09T16:05:41;6.00;99.90
17202;DHT22;8717;53.588;10.176;2023-01-09T16:08:32;6.00;99.90
17202;DHT22;8717;53.588;10.176;2023-01-09T16:11:02;5.90;99.90
17202;DHT22;8717;53.588;10.176;2023-01-09T16:13:31;5.90;99.90
17202;DHT22;8717;53.588;10.176;2023-01-09T16:16:00;5.90;99.90
17202;DHT22;8717;53.588;10.176;2023-01-09T16:18:32;5.90;99.90
17202;DHT22;8717;53.588;10.176;2023-01-09T16:21:21;5.90;99.90
17202;DHT22;8717;53.588;10.176;2023-01-09T16:23:55;5.80;99.90
17202;DHT22;8717;53.588;10.176;2023-01-09T16:26:24;5.80;99.90
17202;DHT22;8717;53.588;10.176;2023-01-09T16:28:52;5.80;99.90
17202;DHT22;8717;53.588;10.176;2023-01-09T16:31:21;5.80;99.90
17202;DHT22;8717;53.588;10.176;2023-01-09T16:33:58;5.80;99.90
17202;DHT22;8717;53.588;10.176;2023-01-09T16:36:27;5.80;99.90